KCKB/CKB METAR and TAF weather

Enter ICAO airport designator
Station Type Date Time Source
KCKB METAR 2020/09/22 07:53 UTC NOAA

KCKB 220753Z AUTO 00000KT 10SM CLR 05/04 A3032 RMK AO2 SLP262 T00500039 TSNO


Station Type Date Time Source
KCKB Decoded METAR 2020/09/22 07:53 UTC NOAA

HARRISON/MARION REGIONAL, WV, United States (KCKB) 39-18N 080-13W 360M
Sep 22, 2020 - 03:53 AM EDT / 2020.09.22 0753 UTC
Wind: Calm:0
Visibility: 10 mile(s):0
Sky conditions: clear
Temperature: 41.0 F (5.0 C)
Dew Point: 39.0 F (3.9 C)
Relative Humidity: 92%
Pressure (altimeter): 30.32 in. Hg (1026 hPa)
ob: KCKB 220753Z AUTO 00000KT 10SM CLR 05/04 A3032 RMK AO2 SLP262 T00500039 TSNO
cycle: 8

Station Type Date Time Source
KCKB TAF 2020/09/22 06:33 UTC NOAA

TAF KCKB 220530Z 2206/2306 00000KT 6SM BR SKC
FM221100 00000KT 5SM BR SKC
FM221300 30005KT P6SM FEW250

Example: see airport list